Time;durP1;ratioP1;P1;durP2;ratioP2;P2;SDS_P1;SDS_P2;PMS_P1;PMS_P2;Temp;Humidity;BMP_temperature;BMP_pressure;BME280_temperature;BME280_humidity;BME280_pressure;Samples;Min_cycle;Max_cycle;Signal;HPM_P1;HPM_P2
2023/05/28 00:08:07;;;;;;;6.55;2.67;;;;;;;19.65;59.63;101941.63;20817529;28;20046;-62
2023/05/28 00:18:11;;;;;;;4.43;2.33;;;;;;;19.61;59.40;101934.75;20807972;28;20150;-62
2023/05/28 00:28:13;;;;;;;4.37;2.37;;;;;;;19.59;59.41;101924.06;20808761;28;20049;-62
2023/05/28 00:38:15;;;;;;;4.90;2.50;;;;;;;19.52;58.91;101894.00;20822822;28;20045;-62
2023/05/28 00:48:17;;;;;;;4.80;2.55;;;;;;;19.55;58.58;101901.88;20820215;28;20140;-63
2023/05/28 00:58:21;;;;;;;3.63;1.95;;;;;;;19.51;58.39;101865.28;20811585;28;20116;-63
2023/05/28 01:08:23;;;;;;;5.05;2.85;;;;;;;19.50;58.01;101877.06;20790622;28;20073;-62
2023/05/28 01:18:25;;;;;;;5.10;2.72;;;;;;;19.50;58.06;101882.47;20821575;28;20056;-63
2023/05/28 01:28:27;;;;;;;3.83;2.40;;;;;;;19.49;57.80;101899.66;20821952;28;20065;-62
2023/05/28 01:38:29;;;;;;;4.22;2.22;;;;;;;19.49;57.56;101902.38;20802593;28;20057;-63
2023/05/28 01:48:30;;;;;;;5.30;2.92;;;;;;;19.48;57.78;101900.66;20825408;28;20045;-62
2023/05/28 01:58:32;;;;;;;5.03;2.50;;;;;;;19.46;57.72;101882.84;20819488;28;20391;-62
2023/05/28 02:08:34;;;;;;;5.20;2.88;;;;;;;19.46;57.76;101885.53;20803869;28;20453;-62
2023/05/28 02:18:36;;;;;;;4.50;2.30;;;;;;;19.45;57.92;101879.28;20807050;28;20037;-62
2023/05/28 02:28:39;;;;;;;3.60;1.80;;;;;;;19.46;58.33;101875.59;20812662;28;20406;-62
2023/05/28 02:38:42;;;;;;;3.47;2.10;;;;;;;19.38;58.53;101867.22;20824156;28;20053;-62
2023/05/28 02:48:45;;;;;;;3.53;2.08;;;;;;;19.42;58.48;101890.31;20857233;28;20043;-62
2023/05/28 02:58:49;;;;;;;3.80;2.38;;;;;;;19.39;58.68;101886.03;20907117;28;20076;-62
2023/05/28 03:08:51;;;;;;;4.43;2.35;;;;;;;19.38;58.77;101886.13;20906036;28;20087;-62
2023/05/28 03:18:53;;;;;;;3.42;1.98;;;;;;;19.36;58.78;101890.78;20888592;28;20045;-62
2023/05/28 03:28:55;;;;;;;4.20;1.95;;;;;;;19.35;58.80;101886.38;20887725;28;20067;-62
2023/05/28 03:39:10;;;;;;;4.72;2.00;;;;;;;19.33;58.77;101882.94;20903451;28;20110;-62
2023/05/28 03:49:12;;;;;;;3.72;2.15;;;;;;;19.29;58.91;101876.94;20889248;28;20120;-62
2023/05/28 03:59:14;;;;;;;3.83;1.80;;;;;;;19.27;58.95;101887.84;20901883;28;20468;-62
2023/05/28 04:09:16;;;;;;;4.47;2.03;;;;;;;19.20;59.00;101878.53;20899838;28;20112;-62
2023/05/28 04:19:18;;;;;;;3.58;1.77;;;;;;;19.24;59.28;101893.50;20899308;28;20143;-62
2023/05/28 04:29:23;;;;;;;3.83;2.10;;;;;;;19.23;59.22;101877.44;20899064;28;20632;-62
2023/05/28 04:39:24;;;;;;;3.38;2.00;;;;;;;19.22;59.36;101884.66;20900887;28;20132;-62
2023/05/28 04:49:26;;;;;;;3.25;1.77;;;;;;;19.22;59.33;101883.78;20889619;28;20053;-62
2023/05/28 04:59:29;;;;;;;3.13;1.73;;;;;;;19.21;59.41;101877.53;20898940;28;20055;-62
2023/05/28 05:09:31;;;;;;;2.88;1.85;;;;;;;19.19;59.53;101893.00;20898058;28;20088;-62
2023/05/28 05:19:33;;;;;;;4.72;2.40;;;;;;;19.21;59.81;101892.88;20898342;28;20095;-62
2023/05/28 05:29:35;;;;;;;4.75;2.35;;;;;;;19.19;60.24;101903.81;20897044;28;20445;-62
2023/05/28 05:39:36;;;;;;;5.18;2.58;;;;;;;19.19;60.76;101901.09;20895313;28;20045;-62
2023/05/28 05:50:10;;;;;;;4.57;2.50;;;;;;;19.19;61.04;101911.91;20889083;28;20049;-62
2023/05/28 06:00:13;;;;;;;6.07;2.42;;;;;;;19.20;61.24;101912.75;20891178;28;20535;-62
2023/05/28 06:10:14;;;;;;;5.13;2.60;;;;;;;19.21;61.49;101903.66;20893945;28;20084;-62
2023/05/28 06:20:19;;;;;;;4.60;2.03;;;;;;;19.21;61.63;101899.13;20909475;28;20047;-62
2023/05/28 06:30:21;;;;;;;4.57;2.40;;;;;;;19.21;61.42;101918.03;20908784;28;20107;-62
2023/05/28 06:40:23;;;;;;;4.88;2.60;;;;;;;19.23;61.42;101913.38;20895848;28;20057;-62
2023/05/28 06:50:25;;;;;;;3.60;2.50;;;;;;;19.24;61.44;101931.28;20888132;28;20056;-62
2023/05/28 07:00:28;;;;;;;5.35;2.85;;;;;;;19.28;61.33;101926.53;20906499;28;20128;-62
2023/05/28 07:10:41;;;;;;;4.40;2.67;;;;;;;19.29;61.20;101939.03;20906111;28;20624;-62
2023/05/28 07:20:44;;;;;;;4.47;2.50;;;;;;;19.31;61.14;101941.59;20904968;28;20139;-62
2023/05/28 07:30:53;;;;;;;2.80;1.88;;;;;;;19.34;61.00;101952.16;20845491;28;20041;-62
2023/05/28 07:40:55;;;;;;;5.47;2.55;;;;;;;19.06;60.46;101901.19;20807487;28;20049;-62
2023/05/28 07:51:03;;;;;;;4.22;2.60;;;;;;;19.41;60.09;101958.78;20814758;28;20045;-62
2023/05/28 08:01:14;;;;;;;5.00;3.00;;;;;;;19.44;59.19;101958.56;20784839;28;20408;-62
2023/05/28 08:11:16;;;;;;;4.72;2.88;;;;;;;19.45;58.34;101943.22;20785705;28;20041;-62
2023/05/28 08:21:20;;;;;;;4.20;2.70;;;;;;;19.62;58.49;101958.09;20805949;28;20045;-62
2023/05/28 08:31:22;;;;;;;4.20;2.67;;;;;;;19.74;58.92;101958.97;20789038;28;20046;-61
2023/05/28 08:41:34;;;;;;;4.72;2.92;;;;;;;19.84;58.42;101949.97;20793342;28;20049;-61
2023/05/28 08:51:37;;;;;;;6.22;3.38;;;;;;;19.93;58.87;101948.41;20780501;28;20136;-61
2023/05/28 09:01:40;;;;;;;4.65;3.22;;;;;;;19.99;58.44;101944.38;20745706;28;20049;-62
2023/05/28 09:11:47;;;;;;;4.93;2.60;;;;;;;20.04;58.57;101949.38;20789319;28;20050;-61
2023/05/28 09:21:56;;;;;;;4.32;2.63;;;;;;;20.07;58.26;101943.72;20787030;28;20060;-62
2023/05/28 09:32:04;;;;;;;6.85;3.40;;;;;;;20.06;58.68;101942.88;20794081;28;20041;-62
2023/05/28 09:42:13;;;;;;;5.97;3.50;;;;;;;20.07;59.62;101939.19;20807586;28;20048;-61
2023/05/28 09:52:21;;;;;;;5.60;3.63;;;;;;;20.10;60.66;101936.22;20792242;28;20116;-61
2023/05/28 10:02:38;;;;;;;6.35;3.53;;;;;;;20.13;61.06;101932.44;20783324;28;20052;-61
2023/05/28 10:12:40;;;;;;;6.43;3.78;;;;;;;20.19;60.39;101914.81;20798490;28;20053;-59
2023/05/28 10:22:42;;;;;;;4.78;2.95;;;;;;;20.22;59.94;101912.75;20787573;28;20144;-59
2023/05/28 10:32:45;;;;;;;4.25;2.85;;;;;;;20.24;59.17;101916.16;20802926;28;20069;-59
2023/05/28 10:42:47;;;;;;;4.32;2.90;;;;;;;20.25;58.57;101911.59;20785850;28;20092;-60
2023/05/28 10:53:08;;;;;;;4.10;2.65;;;;;;;20.31;58.16;101932.72;20799995;28;20137;-62
2023/05/28 11:03:10;;;;;;;4.47;2.83;;;;;;;20.37;57.53;101934.06;20804659;28;20037;-60
2023/05/28 11:13:12;;;;;;;6.72;3.65;;;;;;;20.39;57.42;101930.28;20804108;28;20140;-62
2023/05/28 11:23:15;;;;;;;4.68;2.95;;;;;;;20.40;57.48;101923.88;20806109;28;20042;-62
2023/05/28 11:33:18;;;;;;;4.20;2.50;;;;;;;20.43;56.79;101922.75;20803079;28;20072;-62
2023/05/28 11:43:24;;;;;;;3.08;2.25;;;;;;;20.46;56.36;101924.34;20788005;28;20128;-61
2023/05/28 11:53:43;;;;;;;2.58;2.30;;;;;;;20.49;55.26;101932.19;20799424;28;20057;-62
2023/05/28 12:03:45;;;;;;;3.63;2.35;;;;;;;20.51;54.38;101933.75;20793071;28;20129;-62
2023/05/28 12:13:46;;;;;;;3.47;2.53;;;;;;;20.54;54.12;101919.13;20791655;28;20050;-62
2023/05/28 12:23:48;;;;;;;3.65;2.72;;;;;;;20.55;53.10;101905.50;20793258;28;20046;-62
2023/05/28 12:33:50;;;;;;;4.88;2.95;;;;;;;20.57;52.48;101908.06;20791107;28;20498;-62
2023/05/28 12:43:51;;;;;;;4.32;3.08;;;;;;;20.57;52.39;101894.53;20792169;28;20064;-62
2023/05/28 12:53:53;;;;;;;3.90;2.55;;;;;;;20.60;52.51;101888.84;20789450;28;20068;-62
2023/05/28 13:03:55;;;;;;;3.63;2.75;;;;;;;20.62;52.74;101884.19;20794156;28;20448;-63
2023/05/28 13:13:57;;;;;;;4.25;2.72;;;;;;;20.63;52.94;101885.88;20812840;28;20405;-63
2023/05/28 13:24:03;;;;;;;2.90;2.25;;;;;;;20.63;53.20;101880.47;20809648;28;20068;-63
2023/05/28 13:34:05;;;;;;;3.65;2.60;;;;;;;20.64;54.43;101865.97;20814911;28;20049;-63
2023/05/28 13:44:06;;;;;;;4.10;2.70;;;;;;;20.67;56.24;101881.94;20808210;28;20412;-60
2023/05/28 13:54:08;;;;;;;7.28;3.35;;;;;;;20.68;57.85;101880.94;20807467;28;20060;-60
2023/05/28 14:04:10;;;;;;;5.05;2.45;;;;;;;20.70;58.25;101876.25;20809224;28;20048;-59
2023/05/28 14:14:12;;;;;;;3.70;2.28;;;;;;;20.66;58.55;101869.41;20805883;28;20363;-60
2023/05/28 14:24:14;;;;;;;3.55;2.22;;;;;;;20.70;59.16;101892.50;20801352;28;20126;-59
2023/05/28 14:34:16;;;;;;;3.60;2.38;;;;;;;20.72;59.45;101890.50;20798979;28;20054;-58
2023/05/28 14:44:17;;;;;;;4.78;2.05;;;;;;;20.75;60.05;101897.53;20793587;28;20055;-59
2023/05/28 14:54:19;;;;;;;4.22;2.15;;;;;;;20.73;59.65;101902.22;20800870;28;20051;-60
2023/05/28 15:04:21;;;;;;;3.28;2.05;;;;;;;20.71;59.02;101902.31;20812254;28;20046;-60
2023/05/28 15:14:22;;;;;;;4.10;2.20;;;;;;;20.71;58.77;101905.03;20804853;28;20088;-59
2023/05/28 15:24:24;;;;;;;3.67;2.05;;;;;;;20.78;58.39;101916.19;20803606;28;20060;-60
2023/05/28 15:34:26;;;;;;;3.70;2.25;;;;;;;20.82;57.96;101914.97;20806243;28;20129;-61
2023/05/28 15:44:28;;;;;;;9.68;3.88;;;;;;;21.03;59.42;101915.97;20806158;28;20045;-61
2023/05/28 15:54:30;;;;;;;8.77;3.45;;;;;;;21.13;60.28;101909.63;20794645;28;20065;-62
2023/05/28 16:04:31;;;;;;;5.90;2.90;;;;;;;21.15;60.20;101923.91;20797149;28;20050;-61
2023/05/28 16:14:34;;;;;;;4.35;2.70;;;;;;;21.14;59.91;101927.59;20810323;28;20052;-61
2023/05/28 16:24:36;;;;;;;4.03;2.42;;;;;;;21.07;59.83;101933.66;20803040;28;20057;-61
2023/05/28 16:34:38;;;;;;;5.15;2.45;;;;;;;20.99;60.08;101940.59;20792795;28;20136;-61
2023/05/28 16:44:40;;;;;;;4.85;2.45;;;;;;;20.86;60.51;101946.19;20796112;28;20565;-61
2023/05/28 16:54:45;;;;;;;4.75;2.40;;;;;;;20.76;60.31;101950.66;20780908;28;20045;-62
2023/05/28 17:04:48;;;;;;;5.18;2.50;;;;;;;20.66;60.90;101950.56;20810363;28;20456;-62
2023/05/28 17:14:49;;;;;;;4.75;2.20;;;;;;;20.58;61.24;101958.47;20816785;28;20061;-62
2023/05/28 17:24:51;;;;;;;6.25;2.58;;;;;;;20.51;61.29;101963.53;20825882;28;20496;-63
2023/05/28 17:34:53;;;;;;;3.65;2.47;;;;;;;20.46;61.42;101967.63;20899486;28;20136;-62
2023/05/28 17:44:55;;;;;;;4.20;2.63;;;;;;;20.41;61.63;101987.78;20898226;28;20041;-62
2023/05/28 17:54:56;;;;;;;3.55;2.30;;;;;;;20.40;61.66;101991.50;20907772;28;20091;-62
2023/05/28 18:04:58;;;;;;;4.63;2.53;;;;;;;20.38;61.63;102006.97;20912747;28;20072;-62
2023/05/28 18:14:59;;;;;;;3.90;2.40;;;;;;;20.36;61.58;102019.78;20911480;28;20049;-62
2023/05/28 18:25:02;;;;;;;4.72;2.20;;;;;;;20.35;61.51;102030.69;20895442;28;20045;-62
2023/05/28 18:35:05;;;;;;;4.60;2.55;;;;;;;20.25;61.46;102017.06;20910913;28;20049;-62
2023/05/28 18:45:07;;;;;;;4.22;2.33;;;;;;;20.27;61.42;102036.72;20908369;28;20049;-62
2023/05/28 18:55:09;;;;;;;4.50;2.47;;;;;;;20.25;61.38;102038.69;20908078;28;20119;-62
2023/05/28 19:05:11;;;;;;;3.85;2.15;;;;;;;20.22;61.50;102042.53;20854175;28;20123;-62
2023/05/28 19:15:13;;;;;;;4.95;2.35;;;;;;;20.20;61.17;102055.31;20807467;28;20127;-62
2023/05/28 19:25:15;;;;;;;3.83;2.13;;;;;;;20.19;60.98;102058.13;20837099;28;20041;-62
2023/05/28 19:35:16;;;;;;;3.15;1.80;;;;;;;20.16;60.86;102072.75;20816267;28;20618;-62
2023/05/28 19:45:18;;;;;;;2.83;1.60;;;;;;;20.10;60.32;102084.91;20816514;28;20056;-62
2023/05/28 19:55:20;;;;;;;5.75;2.17;;;;;;;20.09;60.13;102094.00;20821664;28;20045;-62
2023/05/28 20:05:21;;;;;;;3.92;2.10;;;;;;;20.05;59.63;102103.34;20819200;28;20079;-62
2023/05/28 20:15:23;;;;;;;4.85;2.05;;;;;;;20.02;59.00;102109.00;20807852;28;20124;-62
2023/05/28 20:25:25;;;;;;;4.25;1.77;;;;;;;19.99;58.67;102099.28;20865635;28;20052;-62
2023/05/28 20:35:28;;;;;;;6.47;1.85;;;;;;;19.97;58.17;102112.03;20901962;28;20565;-62
2023/05/28 20:45:30;;;;;;;4.05;1.88;;;;;;;19.94;57.93;102106.88;20901046;28;20096;-62
2023/05/28 20:55:32;;;;;;;3.58;1.60;;;;;;;19.93;57.83;102121.38;20899662;28;20087;-62
2023/05/28 21:05:33;;;;;;;4.68;1.83;;;;;;;19.90;57.58;102120.75;20900750;28;20049;-62
2023/05/28 21:15:36;;;;;;;5.78;1.92;;;;;;;19.89;57.15;102122.56;20899629;28;20061;-62
2023/05/28 21:25:38;;;;;;;3.05;1.20;;;;;;;19.88;57.08;102128.09;20884777;28;20045;-62
2023/05/28 21:35:40;;;;;;;3.63;1.40;;;;;;;19.85;56.88;102130.03;20915268;28;20084;-62
2023/05/28 21:45:44;;;;;;;3.58;1.48;;;;;;;19.84;56.69;102125.63;20914568;28;20055;-62
2023/05/28 21:55:46;;;;;;;5.32;1.85;;;;;;;19.80;56.09;102126.84;20912649;28;20055;-62
2023/05/28 22:05:47;;;;;;;4.00;1.95;;;;;;;19.74;55.96;102121.91;20913343;28;20052;-62
2023/05/28 22:15:49;;;;;;;4.55;1.80;;;;;;;19.71;55.57;102127.56;20909441;28;20077;-62
2023/05/28 22:25:51;;;;;;;3.65;1.88;;;;;;;19.69;55.47;102137.63;20903655;28;20792;-62
2023/05/28 22:35:53;;;;;;;5.20;1.70;;;;;;;19.67;55.10;102135.06;20910682;28;20132;-62
2023/05/28 22:45:54;;;;;;;5.35;1.60;;;;;;;19.66;55.08;102133.31;20909665;28;20798;-62
2023/05/28 22:55:57;;;;;;;4.78;1.80;;;;;;;19.65;54.59;102141.53;20863749;28;20057;-62
2023/05/28 23:05:58;;;;;;;3.42;1.70;;;;;;;19.62;54.42;102131.81;20818091;28;20037;-62
2023/05/28 23:16:01;;;;;;;4.53;1.88;;;;;;;19.61;54.31;102149.00;20842853;28;20091;-62
2023/05/28 23:26:03;;;;;;;3.17;1.48;;;;;;;19.61;54.50;102157.13;20858083;28;20049;-62
2023/05/28 23:36:06;;;;;;;3.17;1.40;;;;;;;19.62;54.04;102158.00;20818705;28;20041;-62
2023/05/28 23:46:08;;;;;;;4.30;1.55;;;;;;;19.62;54.30;102160.69;20809583;28;20509;-62
2023/05/28 23:56:10;;;;;;;3.33;1.40;;;;;;;19.60;53.86;102165.34;20813269;28;20099;-62
